Time;durP1;ratioP1;P1;durP2;ratioP2;P2;SDS_P1;SDS_P2;PMS_P1;PMS_P2;Temp;Humidity;BMP_temperature;BMP_pressure;BME280_temperature;BME280_humidity;BME280_pressure;Samples;Min_cycle;Max_cycle;Signal;HPM_P1;HPM_P2
2022/04/19 00:00:52;;;;;;;6.70;4.23;;;;;;;;;;4971513;28;20177;-43
2022/04/19 00:03:19;;;;;;;8.50;4.10;;;;;;;;;;4976292;28;20509;-43
2022/04/19 00:05:45;;;;;;;5.50;3.87;;;;;;;;;;4975249;28;20426;-43
2022/04/19 00:08:12;;;;;;;7.33;4.20;;;;;;;;;;4970839;28;20687;-43
2022/04/19 00:10:40;;;;;;;5.70;4.10;;;;;;;;;;4971183;28;20443;-43
2022/04/19 00:13:07;;;;;;;6.93;4.10;;;;;;;;;;4971122;28;20868;-44
2022/04/19 00:15:34;;;;;;;6.20;4.30;;;;;;;;;;4974980;28;21555;-42
2022/04/19 00:18:01;;;;;;;9.27;4.80;;;;;;;;;;4968716;28;20427;-42
2022/04/19 00:20:30;;;;;;;8.10;4.40;;;;;;;;;;4970250;28;20981;-43
2022/04/19 00:22:57;;;;;;;8.87;4.60;;;;;;;;;;4967743;28;20481;-43
2022/04/19 00:25:24;;;;;;;5.77;4.30;;;;;;;;;;4973991;28;20707;-43
2022/04/19 00:27:50;;;;;;;6.23;4.00;;;;;;;;;;4973406;28;20449;-43
2022/04/19 00:30:17;;;;;;;7.60;5.10;;;;;;;;;;4969809;28;21224;-43
2022/04/19 00:32:43;;;;;;;7.80;5.30;;;;;;;;;;4971078;28;21090;-43
2022/04/19 00:35:10;;;;;;;9.67;5.40;;;;;;;;;;4977840;28;20427;-43
2022/04/19 00:37:39;;;;;;;7.97;5.43;;;;;;;;;;4975256;28;20432;-43
2022/04/19 00:40:07;;;;;;;9.53;5.13;;;;;;;;;;4971568;28;20985;-42
2022/04/19 00:42:34;;;;;;;7.33;5.10;;;;;;;;;;4973618;28;20484;-43
2022/04/19 00:45:02;;;;;;;7.70;4.93;;;;;;;;;;4971772;28;20873;-43
2022/04/19 00:47:32;;;;;;;7.93;5.13;;;;;;;;;;4968360;28;20913;-42
2022/04/19 00:50:01;;;;;;;9.53;5.47;;;;;;;;;;4971091;28;20574;-43
2022/04/19 00:52:28;;;;;;;9.83;5.23;;;;;;;;;;4975485;28;20856;-43
2022/04/19 00:54:54;;;;;;;8.73;4.93;;;;;;;;;;4970171;28;20458;-43
2022/04/19 00:57:22;;;;;;;7.67;5.23;;;;;;;;;;4969658;28;20462;-43
2022/04/19 00:59:48;;;;;;;9.37;5.33;;;;;;;;;;4973472;28;20435;-43
2022/04/19 01:02:14;;;;;;;10.03;5.60;;;;;;;;;;4971856;28;20961;-43
2022/04/19 01:04:41;;;;;;;7.97;5.80;;;;;;;;;;4968169;28;20424;-42
2022/04/19 01:07:07;;;;;;;7.87;5.40;;;;;;;;;;4970605;28;20721;-43
2022/04/19 01:09:33;;;;;;;8.80;5.47;;;;;;;;;;4971220;28;20499;-43
2022/04/19 01:14:48;;;;;;;9.47;5.90;;;;;;;;;;4975352;28;20951;-43
2022/04/19 01:17:14;;;;;;;9.07;5.80;;;;;;;;;;4971521;28;20530;-43
2022/04/19 01:19:40;;;;;;;10.13;6.17;;;;;;;;;;4970309;28;21026;-42
2022/04/19 01:22:07;;;;;;;8.03;5.93;;;;;;;;;;4971517;28;20501;-41
2022/04/19 01:24:36;;;;;;;9.20;6.00;;;;;;;;;;4974155;28;21263;-43
2022/04/19 01:27:03;;;;;;;9.37;6.77;;;;;;;;;;4977079;28;20915;-42
2022/04/19 01:29:29;;;;;;;8.07;5.80;;;;;;;;;;4975303;28;20645;-43
2022/04/19 01:31:55;;;;;;;9.43;5.67;;;;;;;;;;4976219;28;20453;-43
2022/04/19 01:34:21;;;;;;;8.73;6.23;;;;;;;;;;4978760;28;21082;-43
2022/04/19 01:36:47;;;;;;;8.47;5.43;;;;;;;;;;4974045;28;20773;-43
2022/04/19 01:39:13;;;;;;;10.60;6.33;;;;;;;;;;4974935;28;21248;-42
2022/04/19 01:41:40;;;;;;;10.17;5.90;;;;;;;;;;4977308;28;20427;-43
2022/04/19 01:44:07;;;;;;;9.23;5.87;;;;;;;;;;4976781;28;20424;-43
2022/04/19 01:46:33;;;;;;;11.40;6.53;;;;;;;;;;4979333;28;20913;-46
2022/04/19 01:49:00;;;;;;;10.93;5.23;;;;;;;;;;4974112;28;20684;-43
2022/04/19 01:51:26;;;;;;;9.43;5.83;;;;;;;;;;4973257;28;20801;-43
2022/04/19 01:53:52;;;;;;;12.93;6.37;;;;;;;;;;4973603;28;20651;-43
2022/04/19 01:56:18;;;;;;;8.17;5.93;;;;;;;;;;4975299;28;20432;-41
2022/04/19 01:58:45;;;;;;;12.87;6.40;;;;;;;;;;4989214;28;20436;-45
2022/04/19 02:01:11;;;;;;;10.53;6.17;;;;;;;;;;4972512;28;20795;-43
2022/04/19 02:03:37;;;;;;;10.77;6.73;;;;;;;;;;4972842;28;20427;-42
2022/04/19 02:06:14;;;;;;;9.90;7.00;;;;;;;;;;4972684;28;21361;-42
2022/04/19 02:08:40;;;;;;;11.10;6.80;;;;;;;;;;4968115;28;20419;-43
2022/04/19 02:11:06;;;;;;;9.63;7.10;;;;;;;;;;4973256;28;20877;-42
2022/04/19 02:13:32;;;;;;;10.77;6.87;;;;;;;;;;4977793;28;20821;-42
2022/04/19 02:15:58;;;;;;;10.70;6.97;;;;;;;;;;4971482;28;20436;-43
2022/04/19 02:18:27;;;;;;;11.73;7.00;;;;;;;;;;4969938;28;20893;-42
2022/04/19 02:20:53;;;;;;;10.53;7.33;;;;;;;;;;4974315;28;20863;-43
2022/04/19 02:23:19;;;;;;;12.10;7.40;;;;;;;;;;4973484;28;20967;-43
2022/04/19 02:25:47;;;;;;;9.13;6.53;;;;;;;;;;4972849;28;20979;-43
2022/04/19 02:28:13;;;;;;;11.60;6.87;;;;;;;;;;4987709;28;20857;-43
2022/04/19 02:30:39;;;;;;;11.10;7.43;;;;;;;;;;4973376;28;21665;-42
2022/04/19 02:33:05;;;;;;;11.73;7.50;;;;;;;;;;4974716;28;21278;-43
2022/04/19 02:35:31;;;;;;;12.20;7.57;;;;;;;;;;4970662;28;21002;-42
2022/04/19 02:37:58;;;;;;;9.63;7.23;;;;;;;;;;4975103;28;20446;-42
2022/04/19 02:40:25;;;;;;;12.03;8.13;;;;;;;;;;4976973;28;20459;-43
2022/04/19 02:42:53;;;;;;;9.97;7.20;;;;;;;;;;4973287;28;21280;-43
2022/04/19 02:45:21;;;;;;;13.00;8.43;;;;;;;;;;4976988;28;20590;-43
2022/04/19 02:47:47;;;;;;;9.80;7.70;;;;;;;;;;4976551;28;20466;-43
2022/04/19 02:50:16;;;;;;;10.37;8.00;;;;;;;;;;4971059;28;20848;-43
2022/04/19 02:52:42;;;;;;;12.70;8.00;;;;;;;;;;4972836;28;20574;-43
2022/04/19 02:55:08;;;;;;;12.90;8.07;;;;;;;;;;4974397;28;20749;-43
2022/04/19 02:57:34;;;;;;;10.00;8.40;;;;;;;;;;4975564;28;20420;-43
2022/04/19 03:00:01;;;;;;;11.00;7.93;;;;;;;;;;4971542;28;20873;-42
2022/04/19 03:02:27;;;;;;;10.67;7.43;;;;;;;;;;4971485;28;21081;-42
2022/04/19 03:04:53;;;;;;;13.03;8.53;;;;;;;;;;4972026;28;20438;-43
2022/04/19 03:07:19;;;;;;;12.60;7.87;;;;;;;;;;4971670;28;20766;-43
2022/04/19 03:09:45;;;;;;;13.20;8.20;;;;;;;;;;4972416;28;20422;-44
2022/04/19 03:12:11;;;;;;;12.67;9.13;;;;;;;;;;4970059;28;20926;-43
2022/04/19 03:14:38;;;;;;;13.03;8.67;;;;;;;;;;4972518;28;20436;-43
2022/04/19 03:17:06;;;;;;;11.00;8.70;;;;;;;;;;4969578;28;21319;-43
2022/04/19 03:19:32;;;;;;;14.13;8.87;;;;;;;;;;4971817;28;20428;-43
2022/04/19 03:21:58;;;;;;;12.47;8.93;;;;;;;;;;4974595;28;21008;-44
2022/04/19 03:29:53;;;;;;;15.03;9.10;;;;;;;;;;4969003;28;21288;-43
2022/04/19 03:32:20;;;;;;;12.37;8.77;;;;;;;;;;4997945;28;21046;-43
2022/04/19 03:34:50;;;;;;;13.03;9.93;;;;;;;;;;4970630;28;20426;-44
2022/04/19 03:37:19;;;;;;;14.70;9.53;;;;;;;;;;4977612;28;21211;-44
2022/04/19 03:39:45;;;;;;;13.20;9.57;;;;;;;;;;4969321;28;21171;-43
2022/04/19 03:42:11;;;;;;;14.47;9.70;;;;;;;;;;4968739;28;20435;-44
2022/04/19 03:44:37;;;;;;;12.70;8.90;;;;;;;;;;4973978;28;20804;-43
2022/04/19 03:47:09;;;;;;;14.20;9.40;;;;;;;;;;4975499;28;20765;-44
2022/04/19 03:49:36;;;;;;;15.27;10.10;;;;;;;;;;4973190;28;20558;-43
2022/04/19 03:52:02;;;;;;;13.33;9.20;;;;;;;;;;4969569;28;20456;-44
2022/04/19 03:54:28;;;;;;;15.87;10.97;;;;;;;;;;4973893;28;20432;-44
2022/04/19 03:56:55;;;;;;;14.67;9.80;;;;;;;;;;4971125;28;21018;-43
2022/04/19 03:59:22;;;;;;;13.23;9.87;;;;;;;;;;4972530;28;20424;-43
2022/04/19 04:01:48;;;;;;;13.73;9.77;;;;;;;;;;4969491;28;20929;-44
2022/04/19 04:04:14;;;;;;;13.47;9.60;;;;;;;;;;4973947;28;20555;-44
2022/04/19 04:06:41;;;;;;;12.40;9.23;;;;;;;;;;4971514;28;20447;-43
2022/04/19 04:09:07;;;;;;;12.37;9.13;;;;;;;;;;4972727;28;20424;-43
2022/04/19 04:11:33;;;;;;;12.77;9.10;;;;;;;;;;4973200;28;20566;-44
2022/04/19 04:13:59;;;;;;;16.70;9.50;;;;;;;;;;4970320;28;20513;-44
2022/04/19 04:16:26;;;;;;;15.77;9.37;;;;;;;;;;4971205;28;20432;-44
2022/04/19 04:18:52;;;;;;;13.93;8.93;;;;;;;;;;4971505;28;20602;-44
2022/04/19 04:21:18;;;;;;;12.73;9.03;;;;;;;;;;4971701;28;20461;-44
2022/04/19 04:23:44;;;;;;;12.70;9.13;;;;;;;;;;4970704;28;20884;-43
2022/04/19 04:26:10;;;;;;;14.87;9.90;;;;;;;;;;4968984;28;20427;-44
2022/04/19 04:28:36;;;;;;;13.83;10.20;;;;;;;;;;4974439;28;20870;-44
2022/04/19 04:31:02;;;;;;;15.00;9.53;;;;;;;;;;4968888;28;20733;-44
2022/04/19 04:33:28;;;;;;;14.63;9.03;;;;;;;;;;4971309;28;20436;-43
2022/04/19 04:35:54;;;;;;;17.03;10.03;;;;;;;;;;4973657;28;20458;-44
2022/04/19 04:38:20;;;;;;;11.73;9.20;;;;;;;;;;4972725;28;20431;-44
2022/04/19 04:40:46;;;;;;;15.00;10.00;;;;;;;;;;4969257;28;20474;-44
2022/04/19 04:43:12;;;;;;;13.13;9.57;;;;;;;;;;4971025;28;20478;-43
2022/04/19 04:45:39;;;;;;;14.97;9.40;;;;;;;;;;4975317;28;20858;-44
2022/04/19 04:50:49;;;;;;;14.90;9.30;;;;;;;;;;4974225;28;20466;-44
2022/04/19 04:53:16;;;;;;;12.13;8.93;;;;;;;;;;4974975;28;21022;-44
2022/04/19 04:55:42;;;;;;;14.10;9.47;;;;;;;;;;4973810;28;21292;-44
2022/04/19 04:58:10;;;;;;;13.07;9.27;;;;;;;;;;4972543;28;20418;-44
2022/04/19 05:00:36;;;;;;;13.30;9.53;;;;;;;;;;4976181;28;20832;-44
2022/04/19 05:03:02;;;;;;;20.17;10.43;;;;;;;;;;4974618;28;20524;-44
2022/04/19 05:05:28;;;;;;;14.00;9.10;;;;;;;;;;4976327;28;20455;-44
2022/04/19 05:07:54;;;;;;;14.23;9.73;;;;;;;;;;4981156;28;21102;-43
2022/04/19 05:10:20;;;;;;;14.53;8.93;;;;;;;;;;4979681;28;20454;-44
2022/04/19 05:12:47;;;;;;;10.90;8.87;;;;;;;;;;4976851;28;20765;-43
2022/04/19 05:15:13;;;;;;;14.87;9.53;;;;;;;;;;4975712;28;20536;-44
2022/04/19 05:17:39;;;;;;;13.97;9.43;;;;;;;;;;4975237;28;20590;-44
2022/04/19 05:20:06;;;;;;;14.87;9.43;;;;;;;;;;4974793;28;21359;-44
2022/04/19 05:22:33;;;;;;;14.03;9.43;;;;;;;;;;4974051;28;20439;-44
2022/04/19 05:24:59;;;;;;;12.57;9.30;;;;;;;;;;4972328;28;21041;-44
2022/04/19 05:27:25;;;;;;;14.73;9.70;;;;;;;;;;4970914;28;20424;-44
2022/04/19 05:29:51;;;;;;;15.60;9.47;;;;;;;;;;4975096;28;20435;-43
2022/04/19 05:32:17;;;;;;;15.57;9.23;;;;;;;;;;4973524;28;20450;-46
2022/04/19 05:34:44;;;;;;;16.90;9.83;;;;;;;;;;4977359;28;20503;-44
2022/04/19 05:37:10;;;;;;;14.50;8.97;;;;;;;;;;4969767;28;20443;-44
2022/04/19 05:39:36;;;;;;;12.80;9.40;;;;;;;;;;4977485;28;20419;-43
2022/04/19 05:42:02;;;;;;;13.43;9.57;;;;;;;;;;4976862;28;20693;-45
2022/04/19 05:44:28;;;;;;;13.33;9.20;;;;;;;;;;4975021;28;20509;-44
2022/04/19 05:46:54;;;;;;;16.13;9.33;;;;;;;;;;4976309;28;20493;-44
2022/04/19 05:49:20;;;;;;;13.17;8.67;;;;;;;;;;4977546;28;20585;-44
2022/04/19 05:51:46;;;;;;;15.53;9.00;;;;;;;;;;4978219;28;20478;-43
2022/04/19 05:54:12;;;;;;;12.00;8.53;;;;;;;;;;4976769;28;20420;-44
2022/04/19 05:56:38;;;;;;;11.90;8.47;;;;;;;;;;4977577;28;20420;-44
2022/04/19 05:59:04;;;;;;;13.33;8.43;;;;;;;;;;4974734;28;20999;-44
2022/04/19 06:04:51;;;;;;;12.63;8.20;;;;;;;;;;4976095;28;20838;-44
2022/04/19 06:07:01;;;;;;;12.67;8.23;;;;;;;;;;4974978;28;20590;-43
2022/04/19 06:09:27;;;;;;;11.97;7.43;;;;;;;;;;4978271;28;21313;-44
2022/04/19 06:11:54;;;;;;;9.50;7.17;;;;;;;;;;4982179;28;20462;-45
2022/04/19 06:14:20;;;;;;;10.40;7.60;;;;;;;;;;4984589;28;20423;-45
2022/04/19 06:16:46;;;;;;;9.80;7.47;;;;;;;;;;4977808;28;20526;-45
2022/04/19 06:19:12;;;;;;;11.23;7.50;;;;;;;;;;4974873;28;20427;-45
2022/04/19 06:21:39;;;;;;;12.10;7.57;;;;;;;;;;4978458;28;21622;-45
2022/04/19 06:24:05;;;;;;;13.90;7.53;;;;;;;;;;4977176;28;20792;-43
2022/04/19 06:26:31;;;;;;;9.77;7.60;;;;;;;;;;4974393;28;20543;-46
2022/04/19 06:28:57;;;;;;;12.53;6.90;;;;;;;;;;4974989;28;20419;-43
2022/04/19 06:31:23;;;;;;;11.77;7.90;;;;;;;;;;4974506;28;20455;-45
2022/04/19 06:33:49;;;;;;;14.27;8.33;;;;;;;;;;4976026;28;20433;-44
2022/04/19 06:36:17;;;;;;;10.93;7.60;;;;;;;;;;4973451;28;21221;-43
2022/04/19 06:38:43;;;;;;;12.90;8.13;;;;;;;;;;4974888;28;20415;-43
2022/04/19 06:41:11;;;;;;;11.43;7.87;;;;;;;;;;4979539;28;20415;-46
2022/04/19 06:43:37;;;;;;;12.80;7.73;;;;;;;;;;4976548;28;21067;-44
2022/04/19 06:46:03;;;;;;;10.87;7.80;;;;;;;;;;4974586;28;21010;-43
2022/04/19 06:48:29;;;;;;;14.53;7.43;;;;;;;;;;4974960;28;20470;-43
2022/04/19 06:50:55;;;;;;;11.00;7.50;;;;;;;;;;4975056;28;21195;-44
2022/04/19 06:53:21;;;;;;;12.47;7.40;;;;;;;;;;4974374;28;20661;-45
2022/04/19 06:55:47;;;;;;;11.13;7.30;;;;;;;;;;4976928;28;20913;-44
2022/04/19 06:58:13;;;;;;;10.63;7.73;;;;;;;;;;4978431;28;20416;-45
2022/04/19 07:00:39;;;;;;;11.03;7.67;;;;;;;;;;4976551;28;20505;-45
2022/04/19 07:03:06;;;;;;;14.90;7.67;;;;;;;;;;4974887;28;20495;-44
2022/04/19 07:05:32;;;;;;;18.97;8.20;;;;;;;;;;4975645;28;20419;-45
2022/04/19 07:07:59;;;;;;;11.97;6.83;;;;;;;;;;4970039;28;20978;-45
2022/04/19 07:10:25;;;;;;;9.97;7.80;;;;;;;;;;4980077;28;20416;-45
2022/04/19 07:12:51;;;;;;;12.50;7.83;;;;;;;;;;4979277;28;20651;-45
2022/04/19 07:15:17;;;;;;;10.03;7.37;;;;;;;;;;4978766;28;21175;-44
2022/04/19 07:17:43;;;;;;;10.50;7.17;;;;;;;;;;4974424;28;20446;-45
2022/04/19 07:28:36;;;;;;;10.80;7.30;;;;;;;;;;4976380;28;20455;-45
2022/04/19 07:31:03;;;;;;;13.90;7.60;;;;;;;;;;4976940;28;20230;-44
2022/04/19 07:33:30;;;;;;;12.57;7.67;;;;;;;;;;4976429;28;20181;-45
2022/04/19 07:35:56;;;;;;;12.17;7.43;;;;;;;;;;4974921;28;20901;-45
2022/04/19 07:38:23;;;;;;;10.70;7.00;;;;;;;;;;4975009;28;20177;-45
2022/04/19 07:40:49;;;;;;;8.63;6.93;;;;;;;;;;4976285;28;20481;-45
2022/04/19 07:43:16;;;;;;;10.17;7.10;;;;;;;;;;4976898;28;20196;-45
2022/04/19 07:45:42;;;;;;;9.60;7.37;;;;;;;;;;4976486;28;20294;-45
2022/04/19 07:48:08;;;;;;;9.97;7.27;;;;;;;;;;4972970;28;20384;-45
2022/04/19 07:50:34;;;;;;;14.07;7.13;;;;;;;;;;4969087;28;20629;-45
2022/04/19 07:53:01;;;;;;;10.60;6.50;;;;;;;;;;4973179;28;20186;-46
2022/04/19 07:55:27;;;;;;;11.43;7.43;;;;;;;;;;4973416;28;20181;-45
2022/04/19 07:57:54;;;;;;;12.10;7.10;;;;;;;;;;4992269;28;20180;-45
2022/04/19 08:00:21;;;;;;;13.73;6.70;;;;;;;;;;4976440;28;20719;-44
2022/04/19 08:02:47;;;;;;;9.17;6.33;;;;;;;;;;4974222;28;20489;-45
2022/04/19 08:05:13;;;;;;;11.93;7.03;;;;;;;;;;4971220;28;20309;-45
2022/04/19 08:07:40;;;;;;;9.47;7.00;;;;;;;;;;4975462;28;20481;-45
2022/04/19 08:10:06;;;;;;;9.93;6.10;;;;;;;;;;4974275;28;20181;-46
2022/04/19 08:12:32;;;;;;;11.87;6.83;;;;;;;;;;4976409;28;20559;-45
2022/04/19 08:14:59;;;;;;;8.67;6.80;;;;;;;;;;4972902;28;20216;-45
2022/04/19 08:17:25;;;;;;;11.43;6.90;;;;;;;;;;4971749;28;20215;-46
2022/04/19 08:19:51;;;;;;;8.93;6.60;;;;;;;;;;4971605;28;20500;-46
2022/04/19 08:22:17;;;;;;;10.13;6.50;;;;;;;;;;4973476;28;20422;-45
2022/04/19 08:24:43;;;;;;;8.27;6.27;;;;;;;;;;4978140;28;20345;-46
2022/04/19 08:27:09;;;;;;;7.83;6.00;;;;;;;;;;4976516;28;20184;-46
2022/04/19 08:29:36;;;;;;;9.93;6.00;;;;;;;;;;4974384;28;20705;-46
2022/04/19 08:32:02;;;;;;;12.10;5.57;;;;;;;;;;4973598;28;20622;-46
2022/04/19 08:34:28;;;;;;;9.07;5.77;;;;;;;;;;4975142;28;20253;-46
2022/04/19 08:36:54;;;;;;;9.87;6.07;;;;;;;;;;4972071;28;20710;-47
2022/04/19 08:39:20;;;;;;;6.40;5.80;;;;;;;;;;4971190;28;20530;-44
2022/04/19 08:41:46;;;;;;;8.97;5.70;;;;;;;;;;4971584;28;20170;-46
2022/04/19 08:44:14;;;;;;;9.53;5.63;;;;;;;;;;4972439;28;20183;-45
2022/04/19 08:46:40;;;;;;;9.50;5.90;;;;;;;;;;4971670;28;20951;-45
2022/04/19 08:49:06;;;;;;;9.70;5.87;;;;;;;;;;4972051;28;20192;-45
2022/04/19 08:51:35;;;;;;;7.50;6.03;;;;;;;;;;4978208;28;20700;-45
2022/04/19 08:59:32;;;;;;;7.10;5.70;;;;;;;;;;4975310;28;20174;-45
2022/04/19 09:01:59;;;;;;;9.20;6.03;;;;;;;;;;4979738;28;20894;-45
2022/04/19 09:04:26;;;;;;;10.03;6.57;;;;;;;;;;4980597;28;20185;-44
2022/04/19 09:06:52;;;;;;;9.23;5.60;;;;;;;;;;4975580;28;20665;-44
2022/04/19 09:09:21;;;;;;;10.17;6.50;;;;;;;;;;4974624;28;20180;-44
2022/04/19 09:11:51;;;;;;;12.00;6.63;;;;;;;;;;4977188;28;20301;-44
2022/04/19 09:14:17;;;;;;;7.47;6.27;;;;;;;;;;4980946;28;20931;-44
2022/04/19 09:16:44;;;;;;;8.17;6.17;;;;;;;;;;4974212;28;20255;-44
2022/04/19 09:19:10;;;;;;;9.77;5.80;;;;;;;;;;4975946;28;20191;-44
2022/04/19 09:21:40;;;;;;;6.80;5.60;;;;;;;;;;4977110;28;20181;-44
2022/04/19 09:24:26;;;;;;;7.10;5.17;;;;;;;;;;4977356;28;20735;-45
2022/04/19 09:26:53;;;;;;;9.63;5.77;;;;;;;;;;4976021;28;20715;-45
2022/04/19 09:29:28;;;;;;;8.00;5.53;;;;;;;;;;4978653;28;20181;-45
2022/04/19 09:31:58;;;;;;;8.67;6.10;;;;;;;;;;4976628;28;20206;-45
2022/04/19 09:34:30;;;;;;;5.67;4.97;;;;;;;;;;4990119;28;20876;-45
2022/04/19 09:37:08;;;;;;;11.37;5.40;;;;;;;;;;4973385;28;20357;-45
2022/04/19 09:39:36;;;;;;;7.73;5.43;;;;;;;;;;4977063;28;20277;-45
2022/04/19 09:42:04;;;;;;;8.90;5.20;;;;;;;;;;4976897;28;20200;-45
2022/04/19 09:44:31;;;;;;;9.97;5.70;;;;;;;;;;4979686;28;20631;-45
2022/04/19 09:47:01;;;;;;;6.57;5.70;;;;;;;;;;4979815;28;20212;-45
2022/04/19 09:49:44;;;;;;;9.90;5.53;;;;;;;;;;4980967;28;20172;-45
2022/04/19 09:52:15;;;;;;;10.40;5.33;;;;;;;;;;4980901;28;20204;-45
2022/04/19 09:54:44;;;;;;;9.00;5.90;;;;;;;;;;4978961;28;20177;-45
2022/04/19 09:57:11;;;;;;;10.70;6.20;;;;;;;;;;4979928;28;20212;-45
2022/04/19 09:59:43;;;;;;;6.10;5.37;;;;;;;;;;4980151;28;20516;-45
2022/04/19 10:10:26;;;;;;;8.60;5.40;;;;;;;;;;4977668;28;20315;-45
2022/04/19 10:12:53;;;;;;;6.30;5.20;;;;;;;;;;4979948;28;20200;-45
2022/04/19 10:15:22;;;;;;;8.93;5.30;;;;;;;;;;4979908;28;20181;-45
2022/04/19 10:17:48;;;;;;;8.93;5.50;;;;;;;;;;4975746;28;20295;-45
2022/04/19 10:20:16;;;;;;;9.30;5.33;;;;;;;;;;4976837;28;21605;-45
2022/04/19 10:22:46;;;;;;;14.20;5.40;;;;;;;;;;4975623;28;20291;-45
2022/04/19 10:25:17;;;;;;;7.30;4.80;;;;;;;;;;4975706;28;20902;-45
2022/04/19 10:27:44;;;;;;;8.37;4.00;;;;;;;;;;4977672;28;20175;-45
2022/04/19 10:30:19;;;;;;;6.23;4.63;;;;;;;;;;4979316;28;20191;-45
2022/04/19 10:32:45;;;;;;;5.50;4.60;;;;;;;;;;4977941;28;20192;-45
2022/04/19 10:35:12;;;;;;;7.93;5.10;;;;;;;;;;4977688;28;20181;-44
2022/04/19 10:37:39;;;;;;;7.77;4.80;;;;;;;;;;4978855;28;20269;-44
2022/04/19 10:40:07;;;;;;;6.90;4.60;;;;;;;;;;5011777;28;20193;-44
2022/04/19 10:42:37;;;;;;;5.70;4.80;;;;;;;;;;4978401;28;20254;-45
2022/04/19 10:45:13;;;;;;;6.80;4.67;;;;;;;;;;4976021;28;20643;-43
2022/04/19 10:47:54;;;;;;;4.47;3.93;;;;;;;;;;4978841;28;20183;-44
2022/04/19 10:50:30;;;;;;;4.60;4.10;;;;;;;;;;4980761;28;20184;-43
2022/04/19 10:52:59;;;;;;;4.80;3.90;;;;;;;;;;4977603;28;20208;-44
2022/04/19 10:55:27;;;;;;;5.97;4.60;;;;;;;;;;4984521;28;21157;-44
2022/04/19 10:58:18;;;;;;;6.03;4.63;;;;;;;;;;4978158;28;20184;-44
2022/04/19 11:00:44;;;;;;;5.23;3.83;;;;;;;;;;4975426;28;20276;-44
2022/04/19 11:03:18;;;;;;;4.57;3.87;;;;;;;;;;4974308;28;20176;-43
2022/04/19 11:05:47;;;;;;;5.60;4.50;;;;;;;;;;4975292;28;20184;-44
2022/04/19 11:08:20;;;;;;;5.73;4.33;;;;;;;;;;4978631;28;20280;-44
2022/04/19 11:10:46;;;;;;;5.03;4.20;;;;;;;;;;4972235;28;20181;-44
2022/04/19 11:13:12;;;;;;;9.47;4.73;;;;;;;;;;4971735;28;20995;-45
2022/04/19 11:15:38;;;;;;;6.00;4.30;;;;;;;;;;4979457;28;20189;-44
2022/04/19 11:18:24;;;;;;;5.33;4.27;;;;;;;;;;4979781;28;20203;-45
2022/04/19 11:20:51;;;;;;;4.50;4.07;;;;;;;;;;4976900;28;20173;-44
2022/04/19 11:23:18;;;;;;;6.67;4.70;;;;;;;;;;4977262;28;20182;-44
2022/04/19 11:25:45;;;;;;;6.37;4.50;;;;;;;;;;4977500;28;20176;-44
2022/04/19 11:28:12;;;;;;;5.93;4.83;;;;;;;;;;4976823;28;20176;-44
2022/04/19 11:30:43;;;;;;;6.50;4.53;;;;;;;;;;4977696;28;21011;-44
2022/04/19 11:33:09;;;;;;;5.50;4.33;;;;;;;;;;4980448;28;21222;-44
2022/04/19 11:35:35;;;;;;;5.57;4.80;;;;;;;;;;4975817;28;20246;-45
2022/04/19 11:38:08;;;;;;;6.93;5.30;;;;;;;;;;4977604;28;20201;-44
2022/04/19 11:49:03;;;;;;;8.33;5.57;;;;;;;;;;4979937;28;20180;-44
2022/04/19 11:51:30;;;;;;;7.80;5.70;;;;;;;;;;4975723;28;21069;-44
2022/04/19 11:53:56;;;;;;;8.20;5.67;;;;;;;;;;4979815;28;20259;-45
2022/04/19 11:56:23;;;;;;;7.83;5.40;;;;;;;;;;4976388;28;20200;-45
2022/04/19 11:58:51;;;;;;;7.77;5.40;;;;;;;;;;4977899;28;20220;-44
2022/04/19 12:01:17;;;;;;;8.00;5.50;;;;;;;;;;4978207;28;20208;-45
2022/04/19 12:03:43;;;;;;;6.90;5.63;;;;;;;;;;4974059;28;20235;-44
2022/04/19 12:06:11;;;;;;;7.47;5.50;;;;;;;;;;4972607;28;20189;-45
2022/04/19 12:08:38;;;;;;;5.70;5.10;;;;;;;;;;4975310;28;20188;-45
2022/04/19 12:11:06;;;;;;;7.70;5.93;;;;;;;;;;4977991;28;20212;-45
2022/04/19 12:13:32;;;;;;;7.67;6.27;;;;;;;;;;4979661;28;20977;-44
2022/04/19 12:16:00;;;;;;;7.37;5.53;;;;;;;;;;4976284;28;20740;-44
2022/04/19 12:18:31;;;;;;;7.17;5.30;;;;;;;;;;4978571;28;20632;-45
2022/04/19 12:20:57;;;;;;;7.93;6.60;;;;;;;;;;4975306;28;20172;-45
2022/04/19 12:23:23;;;;;;;10.13;6.00;;;;;;;;;;4977743;28;20497;-43
2022/04/19 12:25:59;;;;;;;8.77;6.07;;;;;;;;;;4976702;28;20558;-44
2022/04/19 12:31:50;;;;;;;10.07;6.53;;;;;;;;;;4978563;28;20270;-45
2022/04/19 12:37:39;;;;;;;7.80;6.73;;;;;;;;;;4978882;28;20191;-45
2022/04/19 12:43:09;;;;;;;8.10;5.70;;;;;;;;;;4979430;28;20500;-44
2022/04/19 12:48:58;;;;;;;8.43;6.00;;;;;;;;;;4977149;28;20319;-45
2022/04/19 13:19:02;;;;;;;9.47;7.13;;;;;;;;;;4976276;28;20181;-44
2022/04/19 13:27:36;;;;;;;12.80;7.40;;;;;;;;;;4981340;28;20233;-45
2022/04/19 13:30:04;;;;;;;11.83;7.60;;;;;;;;;;4977362;28;20279;-44
2022/04/19 13:32:49;;;;;;;9.70;7.57;;;;;;;;;;4986901;28;20204;-44
2022/04/19 13:44:27;;;;;;;9.27;7.70;;;;;;;;;;4979487;28;20218;-44
2022/04/19 13:47:12;;;;;;;10.70;7.40;;;;;;;;;;4978971;28;20190;-44
2022/04/19 13:49:57;;;;;;;10.50;7.60;;;;;;;;;;4976579;28;20550;-44
2022/04/19 14:01:16;;;;;;;9.70;7.73;;;;;;;;;;4975053;28;20538;-43
2022/04/19 14:09:49;;;;;;;9.80;7.90;;;;;;;;;;4976770;28;20200;-44
2022/04/19 14:15:38;;;;;;;9.97;7.60;;;;;;;;;;4979346;28;20172;-44
2022/04/19 14:49:33;;;;;;;9.40;8.20;;;;;;;;;;4977615;28;20762;-43
2022/04/19 15:05:47;;;;;;;10.27;7.60;;;;;;;;;;4977133;28;20873;-43
2022/04/19 15:10:58;;;;;;;10.50;7.23;;;;;;;;;;4980459;28;20233;-44
2022/04/19 15:13:24;;;;;;;11.23;8.33;;;;;;;;;;4974150;28;20209;-43
2022/04/19 15:15:50;;;;;;;12.00;8.40;;;;;;;;;;4976289;28;20469;-44
2022/04/19 15:29:16;;;;;;;12.20;8.00;;;;;;;;;;4978525;28;20211;-43
2022/04/19 15:34:27;;;;;;;12.37;8.17;;;;;;;;;;4970146;28;20523;-44
2022/04/19 15:50:39;;;;;;;11.90;8.60;;;;;;;;;;4975114;28;20664;-44
2022/04/19 16:01:20;;;;;;;9.23;7.50;;;;;;;;;;4977139;28;20247;-44
2022/04/19 16:03:46;;;;;;;10.07;6.67;;;;;;;;;;4974813;28;20506;-44
2022/04/19 16:06:12;;;;;;;10.70;7.53;;;;;;;;;;4976872;28;20183;-43
2022/04/19 16:08:39;;;;;;;11.33;7.30;;;;;;;;;;4974450;28;20938;-43
2022/04/19 16:11:06;;;;;;;11.10;7.57;;;;;;;;;;4972574;28;20233;-44
2022/04/19 16:13:32;;;;;;;26.20;8.90;;;;;;;;;;4974225;28;20280;-44
2022/04/19 16:23:20;;;;;;;9.47;6.70;;;;;;;;;;4977440;28;20748;-45
2022/04/19 16:24:14;;;;;;;11.47;7.87;;;;;;;;;;4976271;28;20597;-44
2022/04/19 16:26:40;;;;;;;8.10;6.70;;;;;;;;;;4969853;28;20195;-44
2022/04/19 16:29:06;;;;;;;11.57;6.80;;;;;;;;;;4974901;28;20178;-42
2022/04/19 16:31:33;;;;;;;11.17;6.03;;;;;;;;;;4978117;28;20192;-43
2022/04/19 16:33:59;;;;;;;8.97;5.73;;;;;;;;;;4978952;28;20426;-43
2022/04/19 16:36:25;;;;;;;7.97;5.97;;;;;;;;;;4977525;28;20241;-43
2022/04/19 16:38:51;;;;;;;7.73;5.50;;;;;;;;;;4974118;28;20200;-43
2022/04/19 16:41:19;;;;;;;11.77;6.13;;;;;;;;;;4973385;28;20177;-43
2022/04/19 16:43:45;;;;;;;9.27;5.60;;;;;;;;;;4974060;28;20906;-43
2022/04/19 16:46:12;;;;;;;8.30;4.80;;;;;;;;;;4974865;28;20220;-43
2022/04/19 16:48:38;;;;;;;12.00;5.70;;;;;;;;;;4977733;28;20176;-43
2022/04/19 16:51:04;;;;;;;125.87;110.80;;;;;;;;;;4974437;28;20199;-43
2022/04/19 16:53:35;;;;;;;11.87;8.97;;;;;;;;;;4974485;28;20174;-43
2022/04/19 16:56:01;;;;;;;68.80;59.47;;;;;;;;;;4981517;28;20165;-43
2022/04/19 16:58:28;;;;;;;676.00;521.13;;;;;;;;;;4981357;28;20176;-43
2022/04/19 17:00:54;;;;;;;570.57;491.10;;;;;;;;;;4979959;28;20293;-43
2022/04/19 17:06:05;;;;;;;1999.90;999.90;;;;;;;;;;4976126;28;20415;-43
2022/04/19 17:08:31;;;;;;;235.13;212.30;;;;;;;;;;4981740;28;20657;-44
2022/04/19 17:10:57;;;;;;;11.97;9.03;;;;;;;;;;4979271;28;20180;-44
2022/04/19 17:13:23;;;;;;;9.00;7.60;;;;;;;;;;4978242;28;20200;-43
2022/04/19 17:15:51;;;;;;;413.70;366.53;;;;;;;;;;4981224;28;20579;-43
2022/04/19 17:18:18;;;;;;;740.23;655.37;;;;;;;;;;4980834;28;20165;-43
2022/04/19 17:20:44;;;;;;;1707.77;999.90;;;;;;;;;;4980289;28;20173;-43
2022/04/19 17:23:10;;;;;;;891.10;792.63;;;;;;;;;;4983925;28;20185;-45
2022/04/19 17:25:36;;;;;;;1232.70;844.83;;;;;;;;;;4980015;28;20179;-43
2022/04/19 17:28:02;;;;;;;588.60;441.10;;;;;;;;;;4985261;28;20204;-42
2022/04/19 17:30:28;;;;;;;29.97;25.07;;;;;;;;;;4979657;28;21053;-43
2022/04/19 17:32:54;;;;;;;25.50;21.73;;;;;;;;;;4979111;28;20208;-42
2022/04/19 17:35:21;;;;;;;8.57;6.60;;;;;;;;;;4980099;28;20219;-43
2022/04/19 17:37:47;;;;;;;5.33;4.00;;;;;;;;;;4981235;28;20256;-44
2022/04/19 17:40:13;;;;;;;5.93;3.73;;;;;;;;;;4980505;28;20177;-43
2022/04/19 17:42:40;;;;;;;7.87;3.80;;;;;;;;;;4977017;28;20433;-42
2022/04/19 17:45:07;;;;;;;8.47;3.80;;;;;;;;;;4980855;28;20657;-43
2022/04/19 17:47:33;;;;;;;5.80;3.40;;;;;;;;;;4979260;28;20177;-43
2022/04/19 17:58:13;;;;;;;4.67;3.17;;;;;;;;;;4978078;28;20262;-43
2022/04/19 18:00:40;;;;;;;7.47;3.53;;;;;;;;;;4978005;28;20170;-43
2022/04/19 18:03:06;;;;;;;6.67;3.20;;;;;;;;;;4976097;28;20974;-44
2022/04/19 18:05:32;;;;;;;6.57;3.40;;;;;;;;;;4993860;28;20654;-43
2022/04/19 18:07:58;;;;;;;7.63;3.23;;;;;;;;;;4975831;28;20579;-44
2022/04/19 18:10:24;;;;;;;9.17;3.60;;;;;;;;;;4976473;28;20169;-44
2022/04/19 18:12:50;;;;;;;7.10;3.73;;;;;;;;;;4976697;28;20648;-43